Time;durP1;ratioP1;P1;durP2;ratioP2;P2;SDS_P1;SDS_P2;PMS_P1;PMS_P2;Temp;Humidity;BMP_temperature;BMP_pressure;BME280_temperature;BME280_humidity;BME280_pressure;Samples;Min_cycle;Max_cycle;Signal;HPM_P1;HPM_P2
2021/06/22 00:00:36;;;;;;;18.73;10.55;;;25.60;78.40;;;;;;1863202;77;21027;-50
2021/06/22 00:03:05;;;;;;;17.40;9.90;;;25.50;78.60;;;;;;1863157;77;21093;-50
2021/06/22 00:05:35;;;;;;;20.30;10.13;;;25.40;78.80;;;;;;1863206;77;21023;-51
2021/06/22 00:08:05;;;;;;;17.75;10.18;;;25.50;79.00;;;;;;1863083;77;21070;-50
2021/06/22 00:10:35;;;;;;;16.93;11.15;;;25.40;79.00;;;;;;1863118;77;21092;-51
2021/06/22 00:13:05;;;;;;;18.27;11.78;;;25.50;78.90;;;;;;1863125;76;21094;-49
2021/06/22 00:15:34;;;;;;;14.43;10.13;;;25.50;78.60;;;;;;1863139;77;21070;-51
2021/06/22 00:18:04;;;;;;;18.70;11.65;;;25.60;78.60;;;;;;1863112;77;21058;-48
2021/06/22 00:20:33;;;;;;;20.35;12.95;;;25.60;78.60;;;;;;1863114;77;21132;-49
2021/06/22 00:23:03;;;;;;;18.92;11.88;;;25.50;78.30;;;;;;1863045;77;21335;-49
2021/06/22 00:25:33;;;;;;;18.27;10.85;;;25.50;78.40;;;;;;1863131;77;21561;-49
2021/06/22 00:28:02;;;;;;;18.05;10.88;;;25.50;78.40;;;;;;1863002;77;21007;-50
2021/06/22 00:30:32;;;;;;;21.97;10.38;;;25.50;78.50;;;;;;1863283;77;21045;-50
2021/06/22 00:33:04;;;;;;;19.77;9.78;;;25.50;78.70;;;;;;1866471;75;21083;-50
2021/06/22 00:35:33;;;;;;;16.70;11.30;;;25.50;78.50;;;;;;1897137;76;21065;-50
2021/06/22 00:38:02;;;;;;;19.77;12.23;;;25.50;78.50;;;;;;1897260;76;21084;-50
2021/06/22 00:40:32;;;;;;;19.07;10.78;;;25.40;78.40;;;;;;1897152;76;21088;-48
2021/06/22 00:43:01;;;;;;;18.10;11.33;;;25.50;78.50;;;;;;1897084;76;21026;-50
2021/06/22 00:45:33;;;;;;;16.23;10.10;;;25.50;78.60;;;;;;1897230;75;21093;-51
2021/06/22 00:48:05;;;;;;;18.12;11.30;;;25.50;78.70;;;;;;1896638;76;21097;-48
2021/06/22 00:50:35;;;;;;;16.75;10.53;;;25.50;78.60;;;;;;1897435;76;21037;-50
2021/06/22 00:53:08;;;;;;;21.85;10.93;;;25.50;78.70;;;;;;1897213;75;21053;-49
2021/06/22 00:55:37;;;;;;;14.13;9.80;;;25.50;78.70;;;;;;1897389;76;21526;-50
2021/06/22 00:58:09;;;;;;;18.05;10.63;;;25.40;78.70;;;;;;1897325;74;21111;-49
2021/06/22 01:00:39;;;;;;;11.45;9.23;;;25.40;78.80;;;;;;1897210;75;21464;-50
2021/06/22 01:03:09;;;;;;;14.38;9.20;;;25.40;78.80;;;;;;1897313;74;21025;-47
2021/06/22 01:05:40;;;;;;;19.62;9.85;;;25.40;78.80;;;;;;1896307;74;21112;-50
2021/06/22 01:08:11;;;;;;;16.90;9.80;;;25.40;78.60;;;;;;1897173;75;21045;-48
2021/06/22 01:10:41;;;;;;;19.10;10.40;;;25.40;78.70;;;;;;1897244;76;21096;-50
2021/06/22 01:13:10;;;;;;;22.07;10.88;;;25.40;78.60;;;;;;1897312;75;21013;-50
2021/06/22 01:15:41;;;;;;;30.70;13.62;;;25.40;78.50;;;;;;1897326;74;21038;-50
2021/06/22 01:18:10;;;;;;;68.10;15.43;;;25.30;78.30;;;;;;1897456;75;21091;-50
2021/06/22 01:20:41;;;;;;;92.02;15.43;;;25.30;78.30;;;;;;1892072;76;21036;-50
2021/06/22 01:23:11;;;;;;;25.00;11.80;;;25.20;78.50;;;;;;1897303;74;21084;-48
2021/06/22 01:25:41;;;;;;;47.08;11.53;;;25.20;78.70;;;;;;1897212;76;21029;-50
2021/06/22 01:28:38;;;;;;;42.75;12.40;;;25.20;78.90;;;;;;1897145;75;21029;-48
2021/06/22 01:31:14;;;;;;;42.58;12.43;;;25.20;78.90;;;;;;1857524;76;21472;-48
2021/06/22 01:37:19;;;;;;;18.57;9.78;;;25.10;78.90;;;;;;1861998;77;21050;-50
2021/06/22 01:44:05;;;;;;;21.05;11.33;;;25.10;78.70;;;;;;1859709;77;21101;-48
2021/06/22 01:46:51;;;;;;;18.12;11.53;;;25.10;78.60;;;;;;1863368;77;21062;-49
2021/06/22 01:49:21;;;;;;;18.67;12.30;;;25.00;78.50;;;;;;1863230;77;21103;-47
2021/06/22 01:51:51;;;;;;;25.77;13.00;;;24.80;78.60;;;;;;1863238;76;21003;-49
2021/06/22 01:54:21;;;;;;;20.17;12.03;;;24.70;79.00;;;;;;1863197;77;21003;-48
2021/06/22 01:56:52;;;;;;;22.60;12.20;;;24.60;79.50;;;;;;1839152;76;21148;-47
2021/06/22 01:59:24;;;;;;;21.17;12.85;;;24.50;79.60;;;;;;1863113;76;21141;-50
2021/06/22 02:02:07;;;;;;;19.42;11.65;;;24.40;79.80;;;;;;1862767;77;21062;-49
2021/06/22 02:04:38;;;;;;;20.02;10.90;;;24.30;80.00;;;;;;1862306;76;21070;-51
2021/06/22 02:07:08;;;;;;;20.30;14.03;;;24.30;80.40;;;;;;1862552;76;21032;-51
2021/06/22 02:09:45;;;;;;;23.92;12.98;;;24.40;80.50;;;;;;1863191;77;21023;-50
2021/06/22 02:12:16;;;;;;;22.87;12.85;;;24.40;80.30;;;;;;1861110;77;21113;-51
2021/06/22 02:14:45;;;;;;;25.52;14.45;;;24.40;80.20;;;;;;1863237;76;21039;-51
2021/06/22 02:17:15;;;;;;;22.52;12.88;;;24.40;80.40;;;;;;1863221;76;21396;-48
2021/06/22 02:19:44;;;;;;;22.10;13.00;;;24.30;80.50;;;;;;1863163;76;21153;-49
2021/06/22 02:22:15;;;;;;;28.00;14.40;;;24.40;80.70;;;;;;1861862;77;21058;-49
2021/06/22 02:24:45;;;;;;;19.73;12.45;;;24.40;80.40;;;;;;1861260;77;21051;-51
2021/06/22 02:27:28;;;;;;;21.60;11.80;;;24.40;80.40;;;;;;1863217;76;21576;-48
2021/06/22 02:29:59;;;;;;;18.57;11.65;;;24.40;80.40;;;;;;1863043;76;21515;-47
2021/06/22 02:32:29;;;;;;;23.18;11.85;;;24.40;81.10;;;;;;1863336;77;21129;-48
2021/06/22 02:35:00;;;;;;;17.40;12.88;;;24.50;80.50;;;;;;1862156;76;21128;-50
2021/06/22 02:37:31;;;;;;;21.52;12.00;;;24.50;80.30;;;;;;1863299;77;21034;-49
2021/06/22 02:40:00;;;;;;;16.90;12.30;;;24.40;80.40;;;;;;1863235;76;21093;-51
2021/06/22 02:42:30;;;;;;;17.07;13.18;;;24.40;80.50;;;;;;1863170;77;21027;-50
2021/06/22 02:45:00;;;;;;;19.25;12.85;;;24.40;80.50;;;;;;1863380;77;21113;-48
2021/06/22 02:47:29;;;;;;;16.32;12.20;;;24.50;80.50;;;;;;1863212;77;21093;-51
2021/06/22 02:49:58;;;;;;;23.75;14.23;;;24.50;80.50;;;;;;1863201;77;21101;-50
2021/06/22 02:52:28;;;;;;;27.93;15.43;;;24.50;80.60;;;;;;1863162;77;21528;-48
2021/06/22 02:54:57;;;;;;;26.57;15.65;;;24.50;80.50;;;;;;1863227;77;21023;-48
2021/06/22 02:57:28;;;;;;;24.02;15.32;;;24.50;80.60;;;;;;1863169;76;21027;-50
2021/06/22 02:59:58;;;;;;;25.70;13.65;;;24.40;80.70;;;;;;1863353;76;21031;-50
2021/06/22 03:02:28;;;;;;;25.05;13.25;;;24.40;80.70;;;;;;1863210;77;21046;-51
2021/06/22 03:04:57;;;;;;;18.65;12.90;;;24.40;80.60;;;;;;1863167;77;21559;-52
2021/06/22 03:07:27;;;;;;;21.50;12.63;;;24.50;80.60;;;;;;1863139;77;21019;-49
2021/06/22 03:09:58;;;;;;;20.15;13.50;;;24.60;80.50;;;;;;1863095;76;21027;-51
2021/06/22 03:12:28;;;;;;;18.40;13.75;;;24.70;80.20;;;;;;1863126;77;21019;-51
2021/06/22 03:14:59;;;;;;;22.10;14.85;;;24.60;79.90;;;;;;1860504;77;21034;-51
2021/06/22 03:17:30;;;;;;;22.35;14.87;;;24.60;80.10;;;;;;1862497;77;21042;-49
2021/06/22 03:19:59;;;;;;;23.95;14.55;;;24.50;80.40;;;;;;1863162;77;21027;-51
2021/06/22 03:22:30;;;;;;;21.02;15.08;;;24.50;80.90;;;;;;1863245;76;21122;-50
2021/06/22 03:24:59;;;;;;;22.85;15.18;;;24.50;80.90;;;;;;1839070;77;21077;-52
2021/06/22 03:27:29;;;;;;;41.48;32.10;;;24.40;80.90;;;;;;1863117;77;21034;-50
2021/06/22 03:30:16;;;;;;;33.50;17.00;;;24.40;81.00;;;;;;1863085;77;21051;-51
2021/06/22 03:32:47;;;;;;;20.12;13.03;;;24.40;81.10;;;;;;1863198;77;21003;-50
2021/06/22 03:35:17;;;;;;;20.70;14.33;;;24.40;81.20;;;;;;1873218;75;21050;-51
2021/06/22 03:37:46;;;;;;;25.88;14.83;;;24.40;81.10;;;;;;1897147;76;21123;-50
2021/06/22 03:40:17;;;;;;;21.60;12.90;;;24.40;81.30;;;;;;1897192;76;21552;-52
2021/06/22 03:42:47;;;;;;;23.55;12.82;;;24.50;81.60;;;;;;1897289;75;21042;-51
2021/06/22 03:45:17;;;;;;;17.48;12.90;;;24.50;81.50;;;;;;1897267;76;21100;-51
2021/06/22 03:47:48;;;;;;;17.15;11.88;;;24.60;81.30;;;;;;1896951;75;21098;-49
2021/06/22 03:50:18;;;;;;;23.27;12.15;;;24.80;81.10;;;;;;1865290;76;21174;-51
2021/06/22 03:52:49;;;;;;;19.50;12.05;;;24.80;80.90;;;;;;1897168;76;21044;-49
2021/06/22 03:55:29;;;;;;;16.93;10.70;;;24.90;80.90;;;;;;1896027;76;21078;-51
2021/06/22 03:58:04;;;;;;;12.07;10.60;;;25.00;80.80;;;;;;1895969;76;21074;-51
2021/06/22 04:00:44;;;;;;;17.20;11.33;;;25.10;80.70;;;;;;1895253;76;21105;-51
2021/06/22 04:03:16;;;;;;;13.43;8.28;;;25.20;80.50;;;;;;1897113;75;21456;-47
2021/06/22 04:05:50;;;;;;;12.20;8.05;;;25.20;80.30;;;;;;1893877;76;21044;-50
2021/06/22 04:08:24;;;;;;;14.60;8.55;;;25.20;80.00;;;;;;1895792;76;21034;-50
2021/06/22 04:10:55;;;;;;;12.68;8.45;;;25.30;80.60;;;;;;1896399;76;21069;-51
2021/06/22 04:13:24;;;;;;;9.63;7.83;;;25.40;80.00;;;;;;1897258;75;21073;-51
2021/06/22 04:15:55;;;;;;;12.40;8.53;;;25.40;79.70;;;;;;1896574;75;21553;-50
2021/06/22 04:18:25;;;;;;;12.47;8.98;;;25.40;79.40;;;;;;1897103;75;21158;-47
2021/06/22 04:20:55;;;;;;;13.08;7.85;;;25.50;79.50;;;;;;1897118;76;21058;-49
2021/06/22 04:23:26;;;;;;;13.13;7.42;;;25.60;79.50;;;;;;1896388;76;21543;-50
2021/06/22 04:25:56;;;;;;;11.25;9.33;;;25.80;79.20;;;;;;1897243;76;21093;-50
2021/06/22 04:28:26;;;;;;;11.78;6.70;;;25.90;78.60;;;;;;1897156;75;21037;-51
2021/06/22 04:30:55;;;;;;;5.97;5.37;;;26.00;78.30;;;;;;1897206;76;21092;-51
2021/06/22 04:33:25;;;;;;;11.48;6.05;;;26.20;77.40;;;;;;1897194;76;21006;-49
2021/06/22 04:35:54;;;;;;;8.85;6.10;;;26.30;76.80;;;;;;1887123;75;21098;-50
2021/06/22 04:38:24;;;;;;;8.53;6.33;;;26.40;76.60;;;;;;1863190;77;21208;-49
2021/06/22 04:40:53;;;;;;;10.65;6.90;;;26.50;76.30;;;;;;1863149;76;21117;-51
2021/06/22 04:43:22;;;;;;;7.78;5.78;;;26.60;75.60;;;;;;1863206;76;21449;-50
2021/06/22 04:45:52;;;;;;;12.05;5.83;;;26.60;75.30;;;;;;1863175;77;21031;-49
2021/06/22 04:48:21;;;;;;;10.58;6.08;;;26.70;74.90;;;;;;1863277;76;21023;-49
2021/06/22 04:50:53;;;;;;;10.40;6.60;;;26.70;74.30;;;;;;1863314;76;21113;-50
2021/06/22 04:53:22;;;;;;;10.45;6.03;;;26.70;74.40;;;;;;1863263;77;20992;-49
2021/06/22 04:55:51;;;;;;;7.65;5.80;;;26.80;74.10;;;;;;1863196;76;21031;-51
2021/06/22 04:58:21;;;;;;;15.50;9.55;;;26.90;73.80;;;;;;1863279;76;21125;-52
2021/06/22 05:00:50;;;;;;;9.05;6.25;;;27.00;73.50;;;;;;1863245;77;21027;-51
2021/06/22 05:03:20;;;;;;;7.28;6.17;;;27.00;73.80;;;;;;1863432;77;21089;-51
2021/06/22 05:05:49;;;;;;;10.72;6.00;;;27.10;72.90;;;;;;1863305;76;21027;-48
2021/06/22 05:08:19;;;;;;;7.30;6.20;;;27.20;72.50;;;;;;1863103;77;21027;-48
2021/06/22 05:10:48;;;;;;;9.23;5.90;;;27.10;72.40;;;;;;1863128;76;21089;-49
2021/06/22 05:13:18;;;;;;;8.35;5.72;;;27.10;72.30;;;;;;1839436;77;21015;-48
2021/06/22 05:15:47;;;;;;;10.78;6.83;;;27.10;72.20;;;;;;1863131;77;21168;-50
2021/06/22 05:18:17;;;;;;;9.75;6.30;;;27.00;72.50;;;;;;1863298;77;21085;-50
2021/06/22 05:20:46;;;;;;;7.08;5.85;;;27.10;72.50;;;;;;1863147;77;21031;-51
2021/06/22 05:23:16;;;;;;;9.85;5.50;;;27.20;72.10;;;;;;1863121;76;21097;-51
2021/06/22 05:25:45;;;;;;;7.22;5.50;;;27.30;71.80;;;;;;1863243;77;21051;-51
2021/06/22 05:28:15;;;;;;;8.25;7.00;;;27.50;71.20;;;;;;1863175;76;21066;-51
2021/06/22 05:30:44;;;;;;;8.70;5.55;;;27.60;70.40;;;;;;1863069;77;21136;-52
2021/06/22 05:33:14;;;;;;;12.82;6.17;;;27.70;69.90;;;;;;1863108;77;21394;-51
2021/06/22 05:35:43;;;;;;;7.97;5.40;;;27.80;69.90;;;;;;1863064;77;21102;-50
2021/06/22 05:38:13;;;;;;;8.20;6.22;;;28.00;69.70;;;;;;1896605;74;21045;-49
2021/06/22 05:40:43;;;;;;;8.18;5.67;;;28.10;69.30;;;;;;1897123;76;21030;-50
2021/06/22 05:43:12;;;;;;;9.00;5.80;;;28.20;68.80;;;;;;1897288;76;21026;-50
2021/06/22 05:45:42;;;;;;;11.95;5.70;;;28.40;68.60;;;;;;1897203;76;21085;-51
2021/06/22 05:48:11;;;;;;;12.23;6.67;;;28.50;68.30;;;;;;1897222;76;21075;-50
2021/06/22 05:50:41;;;;;;;10.18;6.20;;;28.60;68.00;;;;;;1897112;76;21026;-50
2021/06/22 05:53:10;;;;;;;13.75;7.10;;;28.60;67.90;;;;;;1897087;76;21022;-49
2021/06/22 05:55:39;;;;;;;16.62;7.62;;;28.70;68.00;;;;;;1897251;76;21092;-51
2021/06/22 05:58:09;;;;;;;13.53;6.00;;;28.70;67.60;;;;;;1897155;76;21448;-48
2021/06/22 06:00:38;;;;;;;10.03;6.30;;;28.70;67.40;;;;;;1897074;75;21006;-50
2021/06/22 06:03:07;;;;;;;12.85;5.53;;;28.70;67.50;;;;;;1897234;76;21448;-50
2021/06/22 06:05:37;;;;;;;8.15;5.53;;;28.70;67.30;;;;;;1897283;76;21091;-50
2021/06/22 06:08:07;;;;;;;5.83;4.97;;;28.70;67.10;;;;;;1897207;74;21073;-49
2021/06/22 06:10:36;;;;;;;6.33;4.80;;;28.80;66.50;;;;;;1897155;75;21020;-51
2021/06/22 06:13:05;;;;;;;14.85;6.47;;;28.90;66.20;;;;;;1897128;76;21049;-51
2021/06/22 06:15:35;;;;;;;13.50;4.95;;;28.90;66.10;;;;;;1897195;75;21006;-50
2021/06/22 06:18:05;;;;;;;11.12;6.33;;;29.00;65.90;;;;;;1897167;74;21434;-48
2021/06/22 06:20:34;;;;;;;11.22;4.70;;;29.00;65.60;;;;;;1897088;75;21061;-50
2021/06/22 06:23:04;;;;;;;7.10;4.53;;;29.20;64.90;;;;;;1897240;74;21111;-49
2021/06/22 06:25:33;;;;;;;11.83;5.55;;;29.20;64.20;;;;;;1897043;75;21029;-51
2021/06/22 06:28:06;;;;;;;9.33;5.10;;;29.30;63.80;;;;;;1897202;75;21033;-51
2021/06/22 06:30:36;;;;;;;9.73;4.65;;;29.40;63.70;;;;;;1896895;75;21128;-51
2021/06/22 06:33:05;;;;;;;8.45;5.25;;;29.40;63.30;;;;;;1897258;74;21073;-49
2021/06/22 06:35:34;;;;;;;7.40;4.35;;;29.50;63.40;;;;;;1897057;76;21362;-48
2021/06/22 06:38:04;;;;;;;13.75;5.28;;;29.60;63.10;;;;;;1873843;75;21055;-50
2021/06/22 06:40:38;;;;;;;9.00;5.42;;;29.60;62.70;;;;;;1863127;77;21031;-48
2021/06/22 06:43:08;;;;;;;5.92;5.08;;;29.70;62.80;;;;;;1863399;77;21117;-49
2021/06/22 06:45:37;;;;;;;7.78;4.97;;;29.70;62.50;;;;;;1863182;77;21031;-48
2021/06/22 06:48:07;;;;;;;11.15;5.45;;;29.80;62.50;;;;;;1863053;76;21077;-51
2021/06/22 06:50:37;;;;;;;6.97;5.00;;;29.80;62.40;;;;;;1863134;76;21506;-51
2021/06/22 06:53:06;;;;;;;9.63;4.35;;;29.80;62.20;;;;;;1863248;77;21097;-49
2021/06/22 06:55:40;;;;;;;17.00;5.72;;;29.80;61.90;;;;;;1863036;76;21113;-49
2021/06/22 06:58:07;;;;;;;12.20;5.30;;;29.80;62.40;;;;;;1862673;76;21039;-48
2021/06/22 07:00:37;;;;;;;7.35;4.03;;;29.90;62.30;;;;;;1863233;77;21093;-50
2021/06/22 07:03:07;;;;;;;9.58;6.03;;;29.90;61.90;;;;;;1863029;76;21022;-51
2021/06/22 07:05:37;;;;;;;9.55;5.62;;;30.00;61.80;;;;;;1863196;77;21168;-51
2021/06/22 07:08:07;;;;;;;13.75;5.35;;;30.10;61.80;;;;;;1863159;76;21070;-51
2021/06/22 07:10:38;;;;;;;12.05;6.10;;;30.20;61.20;;;;;;1863081;77;21031;-52
2021/06/22 07:13:13;;;;;;;10.48;5.25;;;30.20;60.90;;;;;;1863246;76;21031;-51
2021/06/22 07:15:39;;;;;;;12.88;4.97;;;30.20;60.80;;;;;;1862610;76;21035;-50
2021/06/22 07:18:08;;;;;;;8.88;4.85;;;30.20;60.70;;;;;;1863120;76;21089;-51
2021/06/22 07:20:37;;;;;;;7.67;4.37;;;30.20;60.30;;;;;;1863114;76;21097;-47
2021/06/22 07:23:07;;;;;;;9.43;5.00;;;30.20;60.00;;;;;;1863117;77;21113;-51
2021/06/22 07:25:36;;;;;;;12.13;4.90;;;30.20;59.80;;;;;;1863113;77;21031;-52
2021/06/22 07:28:06;;;;;;;9.88;4.78;;;30.20;59.80;;;;;;1863072;76;21081;-51
2021/06/22 07:30:35;;;;;;;6.40;5.12;;;30.20;60.00;;;;;;1863170;77;21089;-51
2021/06/22 07:33:05;;;;;;;8.55;5.22;;;30.30;60.00;;;;;;1863149;77;21062;-51
2021/06/22 07:35:34;;;;;;;21.48;8.60;;;30.30;60.00;;;;;;1862567;77;21131;-50
2021/06/22 07:38:04;;;;;;;10.78;4.65;;;30.40;60.20;;;;;;1876087;75;21057;-50
2021/06/22 07:40:34;;;;;;;9.48;4.80;;;30.50;59.90;;;;;;1896467;74;21409;-51
2021/06/22 07:43:03;;;;;;;13.68;6.35;;;30.50;59.30;;;;;;1896407;76;21026;-48
2021/06/22 07:45:33;;;;;;;22.42;7.28;;;30.60;59.20;;;;;;1896303;75;21183;-51
2021/06/22 07:48:03;;;;;;;17.70;5.47;;;30.60;59.10;;;;;;1864764;76;21010;-50
2021/06/22 07:50:33;;;;;;;15.15;5.28;;;30.50;59.10;;;;;;1896446;76;21440;-52
2021/06/22 07:53:02;;;;;;;10.35;5.15;;;30.60;59.00;;;;;;1896011;75;21045;-51
2021/06/22 07:55:32;;;;;;;8.30;5.03;;;30.60;58.90;;;;;;1896820;76;21156;-51
2021/06/22 07:58:02;;;;;;;9.05;5.05;;;30.70;59.00;;;;;;1896605;74;21010;-51
2021/06/22 08:00:38;;;;;;;6.55;4.90;;;30.70;58.70;;;;;;1896531;76;21099;-50
2021/06/22 08:03:03;;;;;;;13.48;4.97;;;30.80;58.80;;;;;;1895334;74;21034;-50
2021/06/22 08:05:32;;;;;;;14.50;5.08;;;30.90;58.90;;;;;;1896828;74;21456;-51
2021/06/22 08:08:01;;;;;;;7.87;5.22;;;30.90;58.90;;;;;;1896577;75;21125;-49
2021/06/22 08:10:31;;;;;;;11.73;5.10;;;31.00;58.60;;;;;;1896748;76;21337;-51
2021/06/22 08:13:00;;;;;;;12.45;4.47;;;31.10;58.50;;;;;;1896745;75;21072;-54
2021/06/22 08:15:30;;;;;;;10.03;4.67;;;31.10;58.50;;;;;;1896648;76;21033;-54
2021/06/22 08:17:59;;;;;;;10.08;4.83;;;31.20;58.30;;;;;;1896738;76;21104;-50
2021/06/22 08:20:29;;;;;;;7.62;5.40;;;31.30;57.80;;;;;;1896855;76;21002;-54
2021/06/22 08:22:59;;;;;;;9.75;4.60;;;31.30;57.40;;;;;;1896741;76;21151;-49
2021/06/22 08:25:29;;;;;;;10.63;5.53;;;31.30;57.50;;;;;;1896672;76;21062;-48
2021/06/22 08:27:58;;;;;;;7.12;4.12;;;31.40;57.30;;;;;;1896690;76;21046;-53
2021/06/22 08:30:29;;;;;;;12.28;4.42;;;31.40;57.20;;;;;;1895504;75;21099;-52
2021/06/22 08:32:59;;;;;;;6.78;5.00;;;31.40;57.00;;;;;;1896231;76;21026;-50
2021/06/22 08:35:28;;;;;;;26.23;5.65;;;31.40;56.90;;;;;;1896598;76;21088;-51
2021/06/22 08:37:58;;;;;;;11.95;6.28;;;31.50;56.90;;;;;;1893325;74;21127;-51
2021/06/22 08:40:27;;;;;;;11.55;4.92;;;31.50;57.10;;;;;;1836528;76;21140;-50
2021/06/22 08:42:57;;;;;;;19.00;6.03;;;31.60;57.00;;;;;;1836710;78;21101;-51
2021/06/22 08:45:27;;;;;;;7.33;4.58;;;31.60;56.80;;;;;;1836621;76;21128;-49
2021/06/22 08:47:57;;;;;;;9.55;4.60;;;31.70;56.70;;;;;;1834265;78;21039;-54
2021/06/22 08:50:26;;;;;;;8.75;5.12;;;31.70;56.70;;;;;;1834173;78;21055;-49
2021/06/22 08:52:56;;;;;;;10.40;4.78;;;31.80;56.50;;;;;;1800825;80;21053;-54
2021/06/22 08:55:25;;;;;;;10.03;4.83;;;31.80;56.50;;;;;;1870194;77;21062;-55
2021/06/22 08:58:07;;;;;;;10.55;4.97;;;31.80;56.50;;;;;;1870026;77;21123;-49
2021/06/22 09:00:39;;;;;;;22.48;5.42;;;31.90;57.00;;;;;;1870215;76;21096;-48
2021/06/22 09:03:13;;;;;;;12.63;4.75;;;31.90;56.50;;;;;;1870369;77;21089;-53
2021/06/22 09:05:45;;;;;;;11.90;5.17;;;31.80;56.40;;;;;;1870168;77;21093;-51
2021/06/22 09:08:26;;;;;;;11.73;4.20;;;31.80;56.10;;;;;;1846229;77;21069;-52
2021/06/22 09:11:11;;;;;;;11.53;4.75;;;31.80;55.80;;;;;;1870372;77;21049;-48
2021/06/22 09:13:46;;;;;;;11.60;4.37;;;31.80;56.00;;;;;;1870394;76;21061;-48
2021/06/22 09:16:16;;;;;;;6.90;4.75;;;31.90;55.90;;;;;;1862905;77;21143;-52
2021/06/22 09:18:46;;;;;;;11.38;4.62;;;31.90;56.50;;;;;;1870308;77;21160;-51
2021/06/22 09:21:23;;;;;;;14.25;4.92;;;32.00;56.20;;;;;;1870223;77;21037;-50
2021/06/22 09:23:55;;;;;;;8.43;4.50;;;32.10;56.20;;;;;;1870607;77;21077;-51
2021/06/22 09:26:31;;;;;;;14.40;5.62;;;32.00;56.20;;;;;;1870429;77;21151;-50
2021/06/22 09:29:09;;;;;;;13.13;4.85;;;31.90;56.00;;;;;;1870366;77;21088;-51
2021/06/22 09:31:50;;;;;;;14.80;4.80;;;31.90;56.20;;;;;;1869547;76;21191;-54
2021/06/22 09:34:19;;;;;;;11.90;4.08;;;31.90;56.00;;;;;;1869977;76;22201;-50
2021/06/22 09:36:54;;;;;;;12.90;4.78;;;32.00;55.50;;;;;;1870270;77;21135;-51
2021/06/22 09:39:25;;;;;;;5.92;4.00;;;32.10;55.70;;;;;;1869249;77;21089;-52
2021/06/22 09:41:56;;;;;;;8.25;4.47;;;32.10;55.70;;;;;;1868966;77;21519;-51
2021/06/22 09:44:30;;;;;;;19.15;6.12;;;32.20;55.40;;;;;;1869025;77;21364;-50
2021/06/22 09:47:01;;;;;;;16.30;4.95;;;32.30;55.20;;;;;;1869250;77;21014;-49
2021/06/22 09:49:32;;;;;;;8.23;4.22;;;32.30;55.10;;;;;;1870206;75;21113;-47
2021/06/22 09:52:13;;;;;;;9.00;4.15;;;32.30;55.00;;;;;;1870060;77;21086;-50
2021/06/22 09:54:48;;;;;;;7.65;4.10;;;32.20;54.90;;;;;;1870557;75;21035;-46
2021/06/22 09:57:19;;;;;;;9.80;4.60;;;32.30;55.20;;;;;;1871693;77;21078;-47
2021/06/22 10:00:04;;;;;;;10.32;4.67;;;32.30;55.20;;;;;;1871991;77;21082;-46
2021/06/22 10:02:30;;;;;;;9.38;4.03;;;32.20;55.20;;;;;;1883102;76;21595;-47
2021/06/22 10:05:02;;;;;;;11.05;4.25;;;32.20;55.30;;;;;;1883132;75;21019;-49
2021/06/22 10:07:31;;;;;;;13.38;4.80;;;32.20;55.80;;;;;;1836694;76;21038;-47
2021/06/22 10:10:03;;;;;;;12.03;4.10;;;32.20;55.80;;;;;;1837005;76;21006;-47
2021/06/22 10:12:34;;;;;;;16.93;6.87;;;32.20;56.00;;;;;;1836616;78;21038;-50
2021/06/22 10:15:04;;;;;;;6.58;4.58;;;32.20;56.10;;;;;;1836774;76;21084;-48
2021/06/22 10:17:34;;;;;;;10.63;7.15;;;32.20;55.90;;;;;;1836758;77;21034;-48
2021/06/22 10:20:06;;;;;;;15.70;5.28;;;32.30;55.50;;;;;;1836479;77;21038;-51
2021/06/22 10:22:38;;;;;;;14.87;5.10;;;32.40;55.70;;;;;;1836903;78;21081;-51
2021/06/22 10:25:10;;;;;;;7.67;4.17;;;32.40;55.30;;;;;;1837409;76;21104;-51
2021/06/22 10:27:39;;;;;;;6.67;3.92;;;32.50;55.30;;;;;;1837502;76;21022;-51
2021/06/22 10:30:10;;;;;;;9.75;4.55;;;32.50;55.30;;;;;;1837475;76;21081;-48
2021/06/22 10:32:40;;;;;;;15.32;6.20;;;32.50;55.20;;;;;;1837374;76;21038;-51
2021/06/22 10:35:12;;;;;;;12.55;4.37;;;32.40;55.50;;;;;;1837460;77;21053;-51
2021/06/22 10:37:44;;;;;;;6.92;4.25;;;32.30;55.20;;;;;;1837433;78;21038;-50
2021/06/22 10:40:20;;;;;;;16.62;5.58;;;32.30;55.70;;;;;;1844013;76;21519;-51
2021/06/22 10:42:57;;;;;;;14.87;4.70;;;32.40;55.90;;;;;;1849205;77;21073;-50
2021/06/22 10:45:26;;;;;;;11.48;4.42;;;32.40;55.60;;;;;;1884350;75;21161;-51
2021/06/22 10:47:58;;;;;;;9.78;5.47;;;32.40;55.30;;;;;;1884751;76;21054;-48
2021/06/22 10:50:30;;;;;;;26.62;15.25;;;32.50;55.20;;;;;;1884727;75;21168;-50
2021/06/22 10:53:07;;;;;;;10.78;4.85;;;32.60;55.20;;;;;;1884924;76;21112;-52
2021/06/22 10:55:45;;;;;;;12.73;4.42;;;32.60;55.30;;;;;;1884720;76;21054;-50
2021/06/22 10:58:18;;;;;;;9.97;4.80;;;32.50;55.30;;;;;;1882811;76;21042;-49
2021/06/22 11:00:50;;;;;;;12.05;4.22;;;32.30;56.00;;;;;;1884667;76;21081;-48
2021/06/22 11:03:33;;;;;;;10.80;4.92;;;32.30;56.20;;;;;;1884789;76;21018;-50
2021/06/22 11:06:08;;;;;;;8.53;4.42;;;32.30;56.10;;;;;;1884825;76;21108;-51
2021/06/22 11:08:41;;;;;;;7.65;4.05;;;32.20;55.90;;;;;;1883288;76;21101;-50
2021/06/22 11:11:13;;;;;;;8.28;3.90;;;32.10;56.20;;;;;;1884723;76;21038;-52
2021/06/22 11:13:47;;;;;;;12.45;4.35;;;32.20;56.60;;;;;;1884720;76;21030;-51
2021/06/22 11:16:23;;;;;;;13.72;4.80;;;32.20;56.30;;;;;;1884833;76;21563;-48
2021/06/22 11:18:58;;;;;;;12.63;4.40;;;32.20;56.30;;;;;;1884883;75;21015;-48
2021/06/22 11:21:28;;;;;;;13.83;5.20;;;32.20;56.20;;;;;;1884779;76;21026;-49
2021/06/22 11:24:04;;;;;;;9.75;4.47;;;32.20;56.40;;;;;;1884846;76;21006;-50
2021/06/22 11:26:45;;;;;;;9.45;4.42;;;32.20;56.10;;;;;;1884824;76;21318;-51
2021/06/22 11:29:21;;;;;;;8.85;4.78;;;32.30;56.00;;;;;;1883674;76;21038;-49
2021/06/22 11:31:56;;;;;;;9.73;4.40;;;32.20;55.90;;;;;;1884796;76;21476;-48
2021/06/22 11:34:35;;;;;;;11.60;5.05;;;32.30;56.00;;;;;;1884774;75;21057;-49
2021/06/22 11:37:07;;;;;;;9.33;4.28;;;32.40;56.10;;;;;;1883889;75;21116;-51
2021/06/22 11:39:42;;;;;;;11.65;5.03;;;32.50;55.60;;;;;;1883827;75;21081;-50
2021/06/22 11:42:15;;;;;;;10.03;4.90;;;32.70;55.50;;;;;;1834485;77;21084;-50
2021/06/22 11:44:47;;;;;;;10.73;4.93;;;32.70;55.60;;;;;;1837541;77;21100;-52
2021/06/22 11:47:34;;;;;;;8.45;4.28;;;32.70;55.90;;;;;;1837342;77;21566;-48
2021/06/22 11:50:15;;;;;;;11.03;4.33;;;32.60;55.60;;;;;;1837312;77;21095;-51
2021/06/22 11:52:47;;;;;;;8.75;4.55;;;32.70;55.70;;;;;;1837277;76;21021;-51
2021/06/22 11:55:21;;;;;;;7.37;4.45;;;32.60;55.30;;;;;;1837268;78;21159;-52
2021/06/22 11:57:59;;;;;;;5.37;3.90;;;32.50;55.40;;;;;;1837378;77;21076;-51
2021/06/22 12:00:33;;;;;;;12.43;4.22;;;32.30;55.50;;;;;;1837288;78;21088;-49
2021/06/22 12:03:06;;;;;;;10.10;4.58;;;32.10;55.70;;;;;;1837412;78;21022;-50
2021/06/22 12:05:37;;;;;;;9.68;4.90;;;31.90;56.20;;;;;;1837424;77;21523;-51
2021/06/22 12:08:08;;;;;;;9.30;4.33;;;31.80;56.30;;;;;;1837356;77;21089;-48
2021/06/22 12:10:49;;;;;;;11.55;5.28;;;31.70;56.30;;;;;;1837262;76;21077;-51
2021/06/22 12:13:32;;;;;;;15.72;5.97;;;31.70;56.40;;;;;;1837260;76;21051;-51
2021/06/22 12:16:16;;;;;;;8.08;4.70;;;31.80;56.50;;;;;;1836210;76;21037;-51
2021/06/22 12:18:45;;;;;;;16.55;5.28;;;31.90;56.80;;;;;;1824755;78;21053;-51
2021/06/22 12:21:15;;;;;;;8.55;4.03;;;32.00;56.60;;;;;;1824686;79;21015;-51
2021/06/22 12:23:44;;;;;;;15.08;4.87;;;32.00;56.30;;;;;;1824770;79;21043;-50
2021/06/22 12:26:16;;;;;;;13.28;5.75;;;31.90;56.50;;;;;;1824761;78;21039;-50
2021/06/22 12:28:45;;;;;;;33.35;5.70;;;31.80;56.50;;;;;;1824951;79;21059;-48
2021/06/22 12:31:15;;;;;;;11.55;5.10;;;31.80;56.60;;;;;;1824932;79;21047;-51
2021/06/22 12:33:46;;;;;;;16.73;4.85;;;31.80;56.60;;;;;;1824964;79;21055;-49
2021/06/22 12:36:20;;;;;;;13.93;6.50;;;31.80;56.90;;;;;;1824862;79;21086;-51
2021/06/22 12:38:59;;;;;;;22.20;8.68;;;31.80;57.50;;;;;;1824833;79;21086;-52
2021/06/22 12:41:30;;;;;;;24.07;8.18;;;31.60;59.40;;;;;;1824792;79;21080;-52
2021/06/22 12:44:04;;;;;;;15.23;9.05;;;31.50;60.50;;;;;;1824948;79;21051;-52
2021/06/22 12:46:32;;;;;;;14.70;8.80;;;31.40;61.60;;;;;;1824639;78;21486;-51
2021/06/22 12:49:07;;;;;;;18.92;8.15;;;31.20;62.20;;;;;;1805664;78;21526;-51
2021/06/22 12:51:39;;;;;;;14.78;8.25;;;31.00;62.80;;;;;;1837342;77;21531;-52
2021/06/22 12:54:10;;;;;;;15.23;8.43;;;30.80;63.10;;;;;;1837301;76;21034;-52
2021/06/22 12:56:50;;;;;;;14.95;7.87;;;30.80;63.40;;;;;;1837474;77;21022;-53
2021/06/22 12:59:22;;;;;;;17.10;7.85;;;30.70;63.60;;;;;;1837211;78;21489;-51
2021/06/22 13:01:56;;;;;;;45.30;38.83;;;30.60;63.90;;;;;;1837281;76;21022;-53
2021/06/22 13:04:28;;;;;;;41.02;30.75;;;30.60;64.40;;;;;;1830290;78;21113;-53